sensor_id;sensor_type;location;lat;lon;timestamp;P1;durP1;ratioP1;P2;durP2;ratioP2
21424;SDS011;10873;51.132;16.848;2023-05-07T00:00:52;2.42;;;2.08;;
21424;SDS011;10873;51.132;16.848;2023-05-07T00:03:22;4.22;;;2.17;;
21424;SDS011;10873;51.132;16.848;2023-05-07T00:05:48;3.58;;;2.30;;
21424;SDS011;10873;51.132;16.848;2023-05-07T00:08:14;2.42;;;2.00;;
21424;SDS011;10873;51.132;16.848;2023-05-07T00:10:40;3.15;;;2.33;;
21424;SDS011;10873;51.132;16.848;2023-05-07T00:13:07;3.40;;;2.38;;
21424;SDS011;10873;51.132;16.848;2023-05-07T00:15:33;3.72;;;2.35;;
21424;SDS011;10873;51.132;16.848;2023-05-07T00:17:59;2.92;;;2.22;;
21424;SDS011;10873;51.132;16.848;2023-05-07T00:20:26;2.42;;;2.13;;
21424;SDS011;10873;51.132;16.848;2023-05-07T00:22:52;3.00;;;1.98;;
21424;SDS011;10873;51.132;16.848;2023-05-07T00:25:18;2.80;;;2.10;;
21424;SDS011;10873;51.132;16.848;2023-05-07T00:27:44;3.95;;;2.20;;
21424;SDS011;10873;51.132;16.848;2023-05-07T00:30:11;3.30;;;2.28;;
21424;SDS011;10873;51.132;16.848;2023-05-07T00:32:37;3.88;;;2.13;;
21424;SDS011;10873;51.132;16.848;2023-05-07T00:35:04;3.40;;;1.98;;
21424;SDS011;10873;51.132;16.848;2023-05-07T00:37:32;2.38;;;1.90;;
21424;SDS011;10873;51.132;16.848;2023-05-07T00:39:58;2.60;;;1.90;;
21424;SDS011;10873;51.132;16.848;2023-05-07T00:42:24;3.75;;;2.00;;
21424;SDS011;10873;51.132;16.848;2023-05-07T00:44:51;3.20;;;1.90;;
21424;SDS011;10873;51.132;16.848;2023-05-07T00:47:17;3.20;;;2.22;;
21424;SDS011;10873;51.132;16.848;2023-05-07T00:49:43;2.60;;;1.85;;
21424;SDS011;10873;51.132;16.848;2023-05-07T00:52:11;3.13;;;1.92;;
21424;SDS011;10873;51.132;16.848;2023-05-07T00:54:41;3.30;;;1.88;;
21424;SDS011;10873;51.132;16.848;2023-05-07T00:57:07;3.78;;;1.98;;
21424;SDS011;10873;51.132;16.848;2023-05-07T00:59:35;1.88;;;1.58;;
21424;SDS011;10873;51.132;16.848;2023-05-07T01:02:01;2.75;;;1.70;;
21424;SDS011;10873;51.132;16.848;2023-05-07T01:04:27;2.08;;;1.73;;
21424;SDS011;10873;51.132;16.848;2023-05-07T01:06:53;1.90;;;1.70;;
21424;SDS011;10873;51.132;16.848;2023-05-07T01:09:21;3.05;;;1.70;;
21424;SDS011;10873;51.132;16.848;2023-05-07T01:11:49;2.10;;;1.80;;
21424;SDS011;10873;51.132;16.848;2023-05-07T01:14:17;2.65;;;1.85;;
21424;SDS011;10873;51.132;16.848;2023-05-07T01:16:43;2.38;;;1.83;;
21424;SDS011;10873;51.132;16.848;2023-05-07T01:19:09;3.60;;;2.13;;
21424;SDS011;10873;51.132;16.848;2023-05-07T01:21:39;2.60;;;1.85;;
21424;SDS011;10873;51.132;16.848;2023-05-07T01:24:11;2.58;;;1.90;;
21424;SDS011;10873;51.132;16.848;2023-05-07T01:26:38;3.10;;;1.75;;
21424;SDS011;10873;51.132;16.848;2023-05-07T01:29:04;2.35;;;1.60;;
21424;SDS011;10873;51.132;16.848;2023-05-07T01:31:30;2.78;;;2.00;;
21424;SDS011;10873;51.132;16.848;2023-05-07T01:33:58;2.17;;;1.70;;
21424;SDS011;10873;51.132;16.848;2023-05-07T01:36:26;3.03;;;1.90;;
21424;SDS011;10873;51.132;16.848;2023-05-07T01:38:54;3.25;;;1.63;;
21424;SDS011;10873;51.132;16.848;2023-05-07T01:41:24;2.00;;;1.70;;
21424;SDS011;10873;51.132;16.848;2023-05-07T01:43:50;2.35;;;1.80;;
21424;SDS011;10873;51.132;16.848;2023-05-07T01:46:17;2.63;;;2.05;;
21424;SDS011;10873;51.132;16.848;2023-05-07T01:48:44;2.45;;;1.83;;
21424;SDS011;10873;51.132;16.848;2023-05-07T01:51:11;2.63;;;1.80;;
21424;SDS011;10873;51.132;16.848;2023-05-07T01:53:37;2.40;;;1.90;;
21424;SDS011;10873;51.132;16.848;2023-05-07T01:56:04;2.45;;;1.77;;
21424;SDS011;10873;51.132;16.848;2023-05-07T01:58:32;3.00;;;2.15;;
21424;SDS011;10873;51.132;16.848;2023-05-07T02:00:58;2.47;;;1.73;;
21424;SDS011;10873;51.132;16.848;2023-05-07T02:03:24;2.70;;;2.00;;
21424;SDS011;10873;51.132;16.848;2023-05-07T02:05:50;2.88;;;1.85;;
21424;SDS011;10873;51.132;16.848;2023-05-07T02:08:17;2.72;;;1.70;;
21424;SDS011;10873;51.132;16.848;2023-05-07T02:10:43;3.20;;;2.00;;
21424;SDS011;10873;51.132;16.848;2023-05-07T02:13:09;2.25;;;1.90;;
21424;SDS011;10873;51.132;16.848;2023-05-07T02:15:36;1.73;;;1.63;;
21424;SDS011;10873;51.132;16.848;2023-05-07T02:18:03;2.35;;;1.63;;
21424;SDS011;10873;51.132;16.848;2023-05-07T02:20:31;1.98;;;1.77;;
21424;SDS011;10873;51.132;16.848;2023-05-07T02:22:57;2.05;;;1.85;;
21424;SDS011;10873;51.132;16.848;2023-05-07T02:25:23;3.13;;;1.70;;
21424;SDS011;10873;51.132;16.848;2023-05-07T02:27:50;2.38;;;1.65;;
21424;SDS011;10873;51.132;16.848;2023-05-07T02:30:15;2.88;;;2.00;;
21424;SDS011;10873;51.132;16.848;2023-05-07T02:32:43;4.15;;;1.90;;
21424;SDS011;10873;51.132;16.848;2023-05-07T02:35:09;4.00;;;2.03;;
21424;SDS011;10873;51.132;16.848;2023-05-07T02:37:36;3.03;;;1.80;;
21424;SDS011;10873;51.132;16.848;2023-05-07T02:40:02;2.70;;;2.00;;
21424;SDS011;10873;51.132;16.848;2023-05-07T02:42:29;2.17;;;1.70;;
21424;SDS011;10873;51.132;16.848;2023-05-07T02:44:55;1.67;;;1.58;;
21424;SDS011;10873;51.132;16.848;2023-05-07T02:47:22;3.35;;;2.28;;
21424;SDS011;10873;51.132;16.848;2023-05-07T02:49:49;3.65;;;2.05;;
21424;SDS011;10873;51.132;16.848;2023-05-07T02:52:15;2.35;;;1.90;;
21424;SDS011;10873;51.132;16.848;2023-05-07T02:54:41;2.40;;;1.80;;
21424;SDS011;10873;51.132;16.848;2023-05-07T02:57:07;1.80;;;1.70;;
21424;SDS011;10873;51.132;16.848;2023-05-07T02:59:33;4.85;;;2.20;;
21424;SDS011;10873;51.132;16.848;2023-05-07T03:01:59;3.90;;;2.17;;
21424;SDS011;10873;51.132;16.848;2023-05-07T03:04:25;3.05;;;2.10;;
21424;SDS011;10873;51.132;16.848;2023-05-07T03:06:52;3.13;;;2.25;;
21424;SDS011;10873;51.132;16.848;2023-05-07T03:09:18;2.97;;;2.25;;
21424;SDS011;10873;51.132;16.848;2023-05-07T03:11:44;2.22;;;2.00;;
21424;SDS011;10873;51.132;16.848;2023-05-07T03:14:10;3.63;;;2.30;;
21424;SDS011;10873;51.132;16.848;2023-05-07T03:16:37;3.85;;;2.10;;
21424;SDS011;10873;51.132;16.848;2023-05-07T03:19:03;3.97;;;2.10;;
21424;SDS011;10873;51.132;16.848;2023-05-07T03:21:29;3.17;;;2.50;;
21424;SDS011;10873;51.132;16.848;2023-05-07T03:23:57;3.20;;;2.45;;
21424;SDS011;10873;51.132;16.848;2023-05-07T03:26:23;3.55;;;2.70;;
21424;SDS011;10873;51.132;16.848;2023-05-07T03:28:49;3.88;;;2.60;;
21424;SDS011;10873;51.132;16.848;2023-05-07T03:31:15;4.55;;;2.85;;
21424;SDS011;10873;51.132;16.848;2023-05-07T03:33:49;3.33;;;2.45;;
21424;SDS011;10873;51.132;16.848;2023-05-07T03:36:16;5.10;;;3.30;;
21424;SDS011;10873;51.132;16.848;2023-05-07T03:38:42;5.32;;;3.55;;
21424;SDS011;10873;51.132;16.848;2023-05-07T03:41:10;4.40;;;3.17;;
21424;SDS011;10873;51.132;16.848;2023-05-07T03:43:35;4.22;;;3.10;;
21424;SDS011;10873;51.132;16.848;2023-05-07T03:46:02;5.53;;;3.28;;
21424;SDS011;10873;51.132;16.848;2023-05-07T03:48:28;4.80;;;3.25;;
21424;SDS011;10873;51.132;16.848;2023-05-07T03:50:54;6.57;;;4.90;;
21424;SDS011;10873;51.132;16.848;2023-05-07T03:53:20;9.23;;;5.03;;
21424;SDS011;10873;51.132;16.848;2023-05-07T03:55:47;9.95;;;5.47;;
21424;SDS011;10873;51.132;16.848;2023-05-07T03:58:14;8.43;;;5.68;;
21424;SDS011;10873;51.132;16.848;2023-05-07T04:00:41;7.57;;;5.25;;
21424;SDS011;10873;51.132;16.848;2023-05-07T04:03:07;6.82;;;4.63;;
21424;SDS011;10873;51.132;16.848;2023-05-07T04:05:33;7.55;;;4.60;;
21424;SDS011;10873;51.132;16.848;2023-05-07T04:07:59;6.55;;;4.25;;
21424;SDS011;10873;51.132;16.848;2023-05-07T04:10:26;6.75;;;3.95;;
21424;SDS011;10873;51.132;16.848;2023-05-07T04:12:53;5.47;;;3.60;;
21424;SDS011;10873;51.132;16.848;2023-05-07T04:15:21;5.22;;;3.33;;
21424;SDS011;10873;51.132;16.848;2023-05-07T04:17:47;5.68;;;3.47;;
21424;SDS011;10873;51.132;16.848;2023-05-07T04:20:13;4.00;;;2.95;;
21424;SDS011;10873;51.132;16.848;2023-05-07T04:22:41;4.35;;;2.90;;
21424;SDS011;10873;51.132;16.848;2023-05-07T04:25:08;3.67;;;2.60;;
21424;SDS011;10873;51.132;16.848;2023-05-07T04:27:35;3.33;;;2.78;;
21424;SDS011;10873;51.132;16.848;2023-05-07T04:30:01;3.90;;;3.00;;
21424;SDS011;10873;51.132;16.848;2023-05-07T04:32:28;3.97;;;2.65;;
21424;SDS011;10873;51.132;16.848;2023-05-07T04:34:55;4.57;;;2.80;;
21424;SDS011;10873;51.132;16.848;2023-05-07T04:37:21;4.35;;;2.65;;
21424;SDS011;10873;51.132;16.848;2023-05-07T04:39:47;5.78;;;2.42;;
21424;SDS011;10873;51.132;16.848;2023-05-07T04:42:14;4.00;;;2.78;;
21424;SDS011;10873;51.132;16.848;2023-05-07T04:44:41;3.42;;;2.65;;
21424;SDS011;10873;51.132;16.848;2023-05-07T04:47:07;3.63;;;2.80;;
21424;SDS011;10873;51.132;16.848;2023-05-07T04:49:34;4.28;;;2.35;;
21424;SDS011;10873;51.132;16.848;2023-05-07T04:52:00;4.57;;;2.80;;
21424;SDS011;10873;51.132;16.848;2023-05-07T04:54:26;4.35;;;2.50;;
21424;SDS011;10873;51.132;16.848;2023-05-07T04:56:52;3.33;;;2.55;;
21424;SDS011;10873;51.132;16.848;2023-05-07T04:59:18;4.13;;;2.45;;
21424;SDS011;10873;51.132;16.848;2023-05-07T05:01:45;3.42;;;2.63;;
21424;SDS011;10873;51.132;16.848;2023-05-07T05:04:11;3.50;;;2.25;;
21424;SDS011;10873;51.132;16.848;2023-05-07T05:06:38;2.50;;;2.08;;
21424;SDS011;10873;51.132;16.848;2023-05-07T05:09:04;2.42;;;2.22;;
21424;SDS011;10873;51.132;16.848;2023-05-07T05:11:30;2.67;;;2.00;;
21424;SDS011;10873;51.132;16.848;2023-05-07T05:13:56;2.63;;;2.22;;
21424;SDS011;10873;51.132;16.848;2023-05-07T05:16:24;2.92;;;2.17;;
21424;SDS011;10873;51.132;16.848;2023-05-07T05:18:50;2.60;;;2.15;;
21424;SDS011;10873;51.132;16.848;2023-05-07T05:21:19;2.20;;;2.00;;
21424;SDS011;10873;51.132;16.848;2023-05-07T05:23:46;2.33;;;2.13;;
21424;SDS011;10873;51.132;16.848;2023-05-07T05:26:12;3.53;;;2.35;;
21424;SDS011;10873;51.132;16.848;2023-05-07T05:28:39;3.50;;;2.30;;
21424;SDS011;10873;51.132;16.848;2023-05-07T05:31:05;3.35;;;2.00;;
21424;SDS011;10873;51.132;16.848;2023-05-07T05:33:31;1.95;;;1.77;;
21424;SDS011;10873;51.132;16.848;2023-05-07T05:35:57;4.13;;;1.92;;
21424;SDS011;10873;51.132;16.848;2023-05-07T05:38:23;1.85;;;1.63;;
21424;SDS011;10873;51.132;16.848;2023-05-07T05:40:50;4.05;;;1.80;;
21424;SDS011;10873;51.132;16.848;2023-05-07T05:43:17;2.83;;;2.00;;
21424;SDS011;10873;51.132;16.848;2023-05-07T05:45:43;2.05;;;1.58;;
21424;SDS011;10873;51.132;16.848;2023-05-07T05:48:09;1.90;;;1.52;;
21424;SDS011;10873;51.132;16.848;2023-05-07T05:50:35;1.95;;;1.70;;
21424;SDS011;10873;51.132;16.848;2023-05-07T05:53:02;2.72;;;1.90;;
21424;SDS011;10873;51.132;16.848;2023-05-07T05:55:28;2.35;;;1.80;;
21424;SDS011;10873;51.132;16.848;2023-05-07T05:57:55;2.78;;;1.55;;
21424;SDS011;10873;51.132;16.848;2023-05-07T06:00:21;2.15;;;1.55;;
21424;SDS011;10873;51.132;16.848;2023-05-07T06:02:48;1.65;;;1.55;;
21424;SDS011;10873;51.132;16.848;2023-05-07T06:05:14;1.90;;;1.80;;
21424;SDS011;10873;51.132;16.848;2023-05-07T06:07:40;2.65;;;2.08;;
21424;SDS011;10873;51.132;16.848;2023-05-07T06:10:06;3.92;;;1.70;;
21424;SDS011;10873;51.132;16.848;2023-05-07T06:12:33;3.28;;;2.08;;
21424;SDS011;10873;51.132;16.848;2023-05-07T06:15:00;2.72;;;2.17;;
21424;SDS011;10873;51.132;16.848;2023-05-07T06:17:27;1.95;;;1.60;;
21424;SDS011;10873;51.132;16.848;2023-05-07T06:19:52;3.05;;;1.85;;
21424;SDS011;10873;51.132;16.848;2023-05-07T06:22:19;2.13;;;1.80;;
21424;SDS011;10873;51.132;16.848;2023-05-07T06:24:44;1.98;;;1.80;;
21424;SDS011;10873;51.132;16.848;2023-05-07T06:27:11;1.92;;;1.60;;
21424;SDS011;10873;51.132;16.848;2023-05-07T06:29:37;1.80;;;1.63;;
21424;SDS011;10873;51.132;16.848;2023-05-07T06:32:07;1.70;;;1.60;;
21424;SDS011;10873;51.132;16.848;2023-05-07T06:34:33;10.32;;;2.30;;
21424;SDS011;10873;51.132;16.848;2023-05-07T06:37:00;47.75;;;4.28;;
21424;SDS011;10873;51.132;16.848;2023-05-07T06:39:26;26.95;;;3.63;;
21424;SDS011;10873;51.132;16.848;2023-05-07T06:41:52;27.67;;;3.17;;
21424;SDS011;10873;51.132;16.848;2023-05-07T06:44:19;13.13;;;2.72;;
21424;SDS011;10873;51.132;16.848;2023-05-07T06:46:45;13.48;;;2.35;;
21424;SDS011;10873;51.132;16.848;2023-05-07T06:49:12;12.30;;;2.28;;
21424;SDS011;10873;51.132;16.848;2023-05-07T06:51:39;6.95;;;2.17;;
21424;SDS011;10873;51.132;16.848;2023-05-07T06:54:05;5.93;;;2.08;;
21424;SDS011;10873;51.132;16.848;2023-05-07T06:56:31;7.43;;;2.35;;
21424;SDS011;10873;51.132;16.848;2023-05-07T06:59:01;13.73;;;2.80;;
21424;SDS011;10873;51.132;16.848;2023-05-07T07:01:28;6.32;;;2.08;;
21424;SDS011;10873;51.132;16.848;2023-05-07T07:03:54;7.85;;;2.17;;
21424;SDS011;10873;51.132;16.848;2023-05-07T07:06:21;10.38;;;2.28;;
21424;SDS011;10873;51.132;16.848;2023-05-07T07:08:47;5.43;;;2.35;;
21424;SDS011;10873;51.132;16.848;2023-05-07T07:11:14;5.70;;;2.50;;
21424;SDS011;10873;51.132;16.848;2023-05-07T07:13:40;9.40;;;2.45;;
21424;SDS011;10873;51.132;16.848;2023-05-07T07:16:08;11.82;;;3.00;;
21424;SDS011;10873;51.132;16.848;2023-05-07T07:18:34;11.73;;;2.88;;
21424;SDS011;10873;51.132;16.848;2023-05-07T07:21:01;16.02;;;3.05;;
21424;SDS011;10873;51.132;16.848;2023-05-07T07:23:28;8.52;;;2.92;;
21424;SDS011;10873;51.132;16.848;2023-05-07T07:25:54;9.45;;;2.90;;
21424;SDS011;10873;51.132;16.848;2023-05-07T07:28:20;6.88;;;2.60;;
21424;SDS011;10873;51.132;16.848;2023-05-07T07:30:46;8.25;;;2.88;;
21424;SDS011;10873;51.132;16.848;2023-05-07T07:33:13;7.57;;;2.97;;
21424;SDS011;10873;51.132;16.848;2023-05-07T07:35:40;8.30;;;3.00;;
21424;SDS011;10873;51.132;16.848;2023-05-07T07:38:05;7.53;;;2.78;;
21424;SDS011;10873;51.132;16.848;2023-05-07T07:40:34;8.57;;;2.53;;
21424;SDS011;10873;51.132;16.848;2023-05-07T07:43:00;5.45;;;2.25;;
21424;SDS011;10873;51.132;16.848;2023-05-07T07:45:26;11.00;;;2.80;;
21424;SDS011;10873;51.132;16.848;2023-05-07T07:47:52;11.68;;;3.03;;
21424;SDS011;10873;51.132;16.848;2023-05-07T07:50:19;4.80;;;2.47;;
21424;SDS011;10873;51.132;16.848;2023-05-07T07:52:45;21.08;;;2.97;;
21424;SDS011;10873;51.132;16.848;2023-05-07T07:55:11;5.47;;;2.72;;
21424;SDS011;10873;51.132;16.848;2023-05-07T07:57:38;4.65;;;2.20;;
21424;SDS011;10873;51.132;16.848;2023-05-07T08:00:06;8.10;;;2.55;;
21424;SDS011;10873;51.132;16.848;2023-05-07T08:02:33;8.13;;;2.42;;
21424;SDS011;10873;51.132;16.848;2023-05-07T08:04:59;6.43;;;2.40;;
21424;SDS011;10873;51.132;16.848;2023-05-07T08:07:25;5.80;;;2.30;;
21424;SDS011;10873;51.132;16.848;2023-05-07T08:09:51;19.15;;;2.75;;
21424;SDS011;10873;51.132;16.848;2023-05-07T08:12:17;8.13;;;2.83;;
21424;SDS011;10873;51.132;16.848;2023-05-07T08:14:45;7.93;;;3.80;;
21424;SDS011;10873;51.132;16.848;2023-05-07T08:17:11;9.77;;;4.07;;
21424;SDS011;10873;51.132;16.848;2023-05-07T08:19:38;14.10;;;4.60;;
21424;SDS011;10873;51.132;16.848;2023-05-07T08:22:04;10.95;;;4.40;;
21424;SDS011;10873;51.132;16.848;2023-05-07T08:24:31;30.92;;;5.35;;
21424;SDS011;10873;51.132;16.848;2023-05-07T08:26:57;38.75;;;3.80;;
21424;SDS011;10873;51.132;16.848;2023-05-07T08:29:23;13.93;;;3.35;;
21424;SDS011;10873;51.132;16.848;2023-05-07T08:31:50;7.78;;;3.00;;
21424;SDS011;10873;51.132;16.848;2023-05-07T08:34:16;8.70;;;2.38;;
21424;SDS011;10873;51.132;16.848;2023-05-07T08:36:42;8.80;;;2.72;;
21424;SDS011;10873;51.132;16.848;2023-05-07T08:39:09;6.55;;;2.53;;
21424;SDS011;10873;51.132;16.848;2023-05-07T08:41:35;3.20;;;2.20;;
21424;SDS011;10873;51.132;16.848;2023-05-07T08:44:02;6.53;;;2.88;;
21424;SDS011;10873;51.132;16.848;2023-05-07T08:46:31;4.72;;;2.60;;
21424;SDS011;10873;51.132;16.848;2023-05-07T08:48:59;9.65;;;2.75;;
21424;SDS011;10873;51.132;16.848;2023-05-07T08:51:25;6.35;;;2.50;;
21424;SDS011;10873;51.132;16.848;2023-05-07T08:53:52;8.57;;;2.60;;
21424;SDS011;10873;51.132;16.848;2023-05-07T08:56:18;5.32;;;2.75;;
21424;SDS011;10873;51.132;16.848;2023-05-07T08:58:45;5.57;;;2.42;;
21424;SDS011;10873;51.132;16.848;2023-05-07T09:01:13;6.90;;;2.90;;
21424;SDS011;10873;51.132;16.848;2023-05-07T09:03:41;4.93;;;2.60;;
21424;SDS011;10873;51.132;16.848;2023-05-07T09:06:10;6.00;;;3.03;;
21424;SDS011;10873;51.132;16.848;2023-05-07T09:08:36;5.18;;;3.08;;
21424;SDS011;10873;51.132;16.848;2023-05-07T09:11:02;5.80;;;2.80;;
21424;SDS011;10873;51.132;16.848;2023-05-07T09:13:29;6.95;;;2.90;;
21424;SDS011;10873;51.132;16.848;2023-05-07T09:15:55;5.25;;;3.10;;
21424;SDS011;10873;51.132;16.848;2023-05-07T09:18:23;7.43;;;3.20;;
21424;SDS011;10873;51.132;16.848;2023-05-07T09:20:49;8.43;;;3.85;;
21424;SDS011;10873;51.132;16.848;2023-05-07T09:23:17;6.38;;;3.45;;
21424;SDS011;10873;51.132;16.848;2023-05-07T09:25:43;7.40;;;3.53;;
21424;SDS011;10873;51.132;16.848;2023-05-07T09:28:09;8.57;;;3.92;;
21424;SDS011;10873;51.132;16.848;2023-05-07T09:30:36;4.80;;;2.90;;
21424;SDS011;10873;51.132;16.848;2023-05-07T09:33:02;6.95;;;3.55;;
21424;SDS011;10873;51.132;16.848;2023-05-07T09:35:29;7.28;;;3.50;;
21424;SDS011;10873;51.132;16.848;2023-05-07T09:37:56;7.80;;;4.57;;
21424;SDS011;10873;51.132;16.848;2023-05-07T09:40:25;6.00;;;3.53;;
21424;SDS011;10873;51.132;16.848;2023-05-07T09:42:53;6.57;;;4.20;;
21424;SDS011;10873;51.132;16.848;2023-05-07T09:45:22;5.70;;;3.47;;
21424;SDS011;10873;51.132;16.848;2023-05-07T09:47:50;8.35;;;3.65;;
21424;SDS011;10873;51.132;16.848;2023-05-07T09:50:20;7.07;;;3.67;;
21424;SDS011;10873;51.132;16.848;2023-05-07T09:52:51;11.82;;;5.30;;
21424;SDS011;10873;51.132;16.848;2023-05-07T09:55:17;8.60;;;4.18;;
21424;SDS011;10873;51.132;16.848;2023-05-07T09:57:45;6.18;;;3.75;;
21424;SDS011;10873;51.132;16.848;2023-05-07T10:00:12;8.43;;;3.65;;
21424;SDS011;10873;51.132;16.848;2023-05-07T10:02:40;8.82;;;3.63;;
21424;SDS011;10873;51.132;16.848;2023-05-07T10:05:13;7.05;;;3.50;;
21424;SDS011;10873;51.132;16.848;2023-05-07T10:07:40;7.28;;;3.58;;
21424;SDS011;10873;51.132;16.848;2023-05-07T10:10:07;8.15;;;4.57;;
21424;SDS011;10873;51.132;16.848;2023-05-07T10:12:34;22.92;;;6.40;;
21424;SDS011;10873;51.132;16.848;2023-05-07T10:15:06;15.77;;;7.38;;
21424;SDS011;10873;51.132;16.848;2023-05-07T10:17:35;12.82;;;5.97;;
21424;SDS011;10873;51.132;16.848;2023-05-07T10:20:01;9.98;;;4.70;;
21424;SDS011;10873;51.132;16.848;2023-05-07T10:22:28;6.60;;;4.10;;
21424;SDS011;10873;51.132;16.848;2023-05-07T10:24:58;5.47;;;3.55;;
21424;SDS011;10873;51.132;16.848;2023-05-07T10:27:28;5.60;;;3.10;;
21424;SDS011;10873;51.132;16.848;2023-05-07T10:30:01;7.13;;;3.22;;
21424;SDS011;10873;51.132;16.848;2023-05-07T10:32:39;7.63;;;3.30;;
21424;SDS011;10873;51.132;16.848;2023-05-07T10:35:09;5.78;;;2.83;;
21424;SDS011;10873;51.132;16.848;2023-05-07T10:37:39;4.43;;;2.70;;
21424;SDS011;10873;51.132;16.848;2023-05-07T10:40:06;9.98;;;3.03;;
21424;SDS011;10873;51.132;16.848;2023-05-07T10:42:33;31.95;;;4.50;;
21424;SDS011;10873;51.132;16.848;2023-05-07T10:45:12;24.80;;;3.97;;
21424;SDS011;10873;51.132;16.848;2023-05-07T10:50:35;16.80;;;4.50;;
21424;SDS011;10873;51.132;16.848;2023-05-07T10:58:49;10.60;;;3.80;;
21424;SDS011;10873;51.132;16.848;2023-05-07T11:01:17;9.27;;;4.10;;
21424;SDS011;10873;51.132;16.848;2023-05-07T11:04:21;13.23;;;3.80;;
21424;SDS011;10873;51.132;16.848;2023-05-07T11:10:00;10.63;;;3.33;;
21424;SDS011;10873;51.132;16.848;2023-05-07T11:15:36;11.88;;;3.63;;
21424;SDS011;10873;51.132;16.848;2023-05-07T11:18:05;4.45;;;2.70;;
21424;SDS011;10873;51.132;16.848;2023-05-07T11:20:51;7.40;;;3.17;;
21424;SDS011;10873;51.132;16.848;2023-05-07T11:26:22;8.52;;;3.28;;
21424;SDS011;10873;51.132;16.848;2023-05-07T11:28:48;8.07;;;3.40;;
21424;SDS011;10873;51.132;16.848;2023-05-07T11:31:15;9.25;;;3.55;;
21424;SDS011;10873;51.132;16.848;2023-05-07T11:33:49;7.00;;;3.38;;
21424;SDS011;10873;51.132;16.848;2023-05-07T11:36:15;11.05;;;3.38;;
21424;SDS011;10873;51.132;16.848;2023-05-07T11:38:43;8.15;;;3.25;;
21424;SDS011;10873;51.132;16.848;2023-05-07T11:41:09;15.48;;;3.67;;
21424;SDS011;10873;51.132;16.848;2023-05-07T11:43:35;10.15;;;3.63;;
21424;SDS011;10873;51.132;16.848;2023-05-07T11:46:04;13.35;;;3.95;;
21424;SDS011;10873;51.132;16.848;2023-05-07T11:48:32;10.32;;;3.53;;
21424;SDS011;10873;51.132;16.848;2023-05-07T11:51:01;13.45;;;3.67;;
21424;SDS011;10873;51.132;16.848;2023-05-07T11:53:35;8.40;;;3.40;;
21424;SDS011;10873;51.132;16.848;2023-05-07T11:56:05;8.63;;;3.95;;
21424;SDS011;10873;51.132;16.848;2023-05-07T11:58:32;13.80;;;4.50;;
21424;SDS011;10873;51.132;16.848;2023-05-07T12:00:58;20.23;;;4.03;;
21424;SDS011;10873;51.132;16.848;2023-05-07T12:03:25;20.25;;;4.05;;
21424;SDS011;10873;51.132;16.848;2023-05-07T12:05:51;16.15;;;3.97;;
21424;SDS011;10873;51.132;16.848;2023-05-07T12:08:19;10.52;;;3.53;;
21424;SDS011;10873;51.132;16.848;2023-05-07T12:10:47;16.35;;;3.58;;
21424;SDS011;10873;51.132;16.848;2023-05-07T12:13:14;10.85;;;4.10;;
21424;SDS011;10873;51.132;16.848;2023-05-07T12:15:41;11.43;;;5.95;;
21424;SDS011;10873;51.132;16.848;2023-05-07T12:18:07;12.35;;;6.70;;
21424;SDS011;10873;51.132;16.848;2023-05-07T12:20:33;18.02;;;8.00;;
21424;SDS011;10873;51.132;16.848;2023-05-07T12:23:00;10.77;;;5.13;;
21424;SDS011;10873;51.132;16.848;2023-05-07T12:25:30;10.85;;;5.45;;
21424;SDS011;10873;51.132;16.848;2023-05-07T12:27:57;11.45;;;4.55;;
21424;SDS011;10873;51.132;16.848;2023-05-07T12:30:24;15.90;;;4.60;;
21424;SDS011;10873;51.132;16.848;2023-05-07T12:32:52;9.25;;;4.07;;
21424;SDS011;10873;51.132;16.848;2023-05-07T12:35:25;9.68;;;4.45;;
21424;SDS011;10873;51.132;16.848;2023-05-07T12:37:54;9.88;;;4.10;;
21424;SDS011;10873;51.132;16.848;2023-05-07T12:40:20;9.85;;;3.92;;
21424;SDS011;10873;51.132;16.848;2023-05-07T12:42:48;14.48;;;3.75;;
21424;SDS011;10873;51.132;16.848;2023-05-07T12:45:20;9.98;;;3.58;;
21424;SDS011;10873;51.132;16.848;2023-05-07T12:47:46;12.00;;;3.40;;
21424;SDS011;10873;51.132;16.848;2023-05-07T12:50:13;8.30;;;3.42;;
21424;SDS011;10873;51.132;16.848;2023-05-07T12:52:39;11.23;;;3.50;;
21424;SDS011;10873;51.132;16.848;2023-05-07T12:55:06;9.70;;;3.20;;
21424;SDS011;10873;51.132;16.848;2023-05-07T12:57:37;7.75;;;3.00;;
21424;SDS011;10873;51.132;16.848;2023-05-07T13:00:06;10.23;;;2.95;;
21424;SDS011;10873;51.132;16.848;2023-05-07T13:02:33;14.43;;;3.28;;
21424;SDS011;10873;51.132;16.848;2023-05-07T13:05:00;7.57;;;2.63;;
21424;SDS011;10873;51.132;16.848;2023-05-07T13:07:26;6.40;;;3.00;;
21424;SDS011;10873;51.132;16.848;2023-05-07T13:09:52;5.45;;;2.85;;
21424;SDS011;10873;51.132;16.848;2023-05-07T13:12:18;6.18;;;2.70;;
21424;SDS011;10873;51.132;16.848;2023-05-07T13:14:44;21.95;;;4.22;;
21424;SDS011;10873;51.132;16.848;2023-05-07T13:17:12;24.85;;;4.30;;
21424;SDS011;10873;51.132;16.848;2023-05-07T13:19:38;13.73;;;3.65;;
21424;SDS011;10873;51.132;16.848;2023-05-07T13:22:05;19.08;;;3.85;;
21424;SDS011;10873;51.132;16.848;2023-05-07T13:24:31;15.18;;;3.80;;
21424;SDS011;10873;51.132;16.848;2023-05-07T13:26:57;6.55;;;3.00;;
21424;SDS011;10873;51.132;16.848;2023-05-07T13:29:23;16.02;;;3.47;;
21424;SDS011;10873;51.132;16.848;2023-05-07T13:31:55;9.30;;;2.95;;
21424;SDS011;10873;51.132;16.848;2023-05-07T13:34:23;13.75;;;2.95;;
21424;SDS011;10873;51.132;16.848;2023-05-07T13:36:49;7.10;;;2.80;;
21424;SDS011;10873;51.132;16.848;2023-05-07T13:39:15;7.03;;;2.75;;
21424;SDS011;10873;51.132;16.848;2023-05-07T13:41:41;10.43;;;3.25;;
21424;SDS011;10873;51.132;16.848;2023-05-07T13:44:08;8.15;;;3.03;;
21424;SDS011;10873;51.132;16.848;2023-05-07T13:46:35;8.98;;;2.67;;
21424;SDS011;10873;51.132;16.848;2023-05-07T13:49:01;12.13;;;2.80;;
21424;SDS011;10873;51.132;16.848;2023-05-07T13:51:28;7.55;;;3.08;;
21424;SDS011;10873;51.132;16.848;2023-05-07T13:53:54;8.40;;;3.30;;
21424;SDS011;10873;51.132;16.848;2023-05-07T13:56:20;8.38;;;3.33;;
21424;SDS011;10873;51.132;16.848;2023-05-07T13:58:47;10.05;;;3.65;;
21424;SDS011;10873;51.132;16.848;2023-05-07T14:01:12;7.75;;;3.38;;
21424;SDS011;10873;51.132;16.848;2023-05-07T14:03:39;5.88;;;3.10;;
21424;SDS011;10873;51.132;16.848;2023-05-07T14:06:05;9.50;;;3.72;;
21424;SDS011;10873;51.132;16.848;2023-05-07T14:08:32;9.52;;;3.72;;
21424;SDS011;10873;51.132;16.848;2023-05-07T14:10:58;10.95;;;3.95;;
21424;SDS011;10873;51.132;16.848;2023-05-07T14:13:25;10.02;;;3.90;;
21424;SDS011;10873;51.132;16.848;2023-05-07T14:15:52;10.20;;;3.72;;
21424;SDS011;10873;51.132;16.848;2023-05-07T14:18:18;9.63;;;3.42;;
21424;SDS011;10873;51.132;16.848;2023-05-07T14:20:44;7.57;;;3.38;;
21424;SDS011;10873;51.132;16.848;2023-05-07T14:23:11;9.13;;;3.25;;
21424;SDS011;10873;51.132;16.848;2023-05-07T14:25:39;8.73;;;3.22;;
21424;SDS011;10873;51.132;16.848;2023-05-07T14:28:05;5.93;;;2.80;;
21424;SDS011;10873;51.132;16.848;2023-05-07T14:30:32;6.95;;;2.95;;
21424;SDS011;10873;51.132;16.848;2023-05-07T14:32:58;4.72;;;2.50;;
21424;SDS011;10873;51.132;16.848;2023-05-07T14:35:24;11.57;;;2.80;;
21424;SDS011;10873;51.132;16.848;2023-05-07T14:37:50;7.65;;;2.83;;
21424;SDS011;10873;51.132;16.848;2023-05-07T14:40:16;6.25;;;2.70;;
21424;SDS011;10873;51.132;16.848;2023-05-07T14:42:43;9.52;;;2.67;;
21424;SDS011;10873;51.132;16.848;2023-05-07T14:45:10;8.43;;;3.33;;
21424;SDS011;10873;51.132;16.848;2023-05-07T14:47:36;6.93;;;3.08;;